Terminal Aerodrome Forecast
Issued by NWS Wilmington, OH

Current Version | Previous Version | Graphics & Text | Print | Product List | Glossary On
Versions: 1 2 3 4 5 6 7 8 9 10 11 12 13 14 15 16 17 18 19 20
000
FTUS41 KILN 011500 AAA
TAFILN
TAF AMD
KILN 011517Z 0115/0212 20006KT P6SM VCSH OVC025
      TEMPO 0115/0117 2SM -SN OVC012
     FM012000 27007KT P6SM VCSH OVC018
      TEMPO 0123/0203 1/2SM SN OVC008
     FM020400 29009KT P6SM OVC012=

USA.gov is the U.S. government's official web portal to all federal, state and local government web resources and services.